createdAt,value
2022-08-22T00:00:51.109Z,50.902393
2022-08-22T00:01:51.114Z,50.902435
2022-08-22T00:02:42.243Z,50.902374
2022-08-22T00:02:52.978Z,50.902386
2022-08-22T00:02:58.168Z,50.902431
2022-08-22T00:03:00.886Z,50.902470
2022-08-22T00:03:01.581Z,50.902378
2022-08-22T00:03:02.619Z,50.902412
2022-08-22T00:03:03.387Z,50.902485
2022-08-22T00:03:06.869Z,50.902458
2022-08-22T00:03:11.735Z,50.902409
2022-08-22T00:03:16.108Z,50.902397
2022-08-22T00:03:53.099Z,50.902447
2022-08-22T00:04:51.102Z,50.902401
2022-08-22T00:05:51.073Z,50.902431
2022-08-22T00:06:51.061Z,50.902405
2022-08-22T00:07:51.060Z,50.902416
2022-08-22T00:08:51.069Z,50.902412
2022-08-22T00:09:51.031Z,50.902428
2022-08-22T00:10:51.023Z,50.902420
2022-08-22T00:11:51.016Z,50.902359
2022-08-22T00:12:51.008Z,50.902378
2022-08-22T00:13:54.825Z,50.902424
2022-08-22T00:14:51.988Z,50.902409
2022-08-22T00:15:50.994Z,50.902409
2022-08-22T00:16:50.983Z,50.902397
2022-08-22T00:17:50.982Z,50.902439
2022-08-22T00:18:50.988Z,50.902466
2022-08-22T00:19:50.953Z,50.902382
2022-08-22T00:20:50.947Z,50.902405
2022-08-22T00:21:50.939Z,50.902409
2022-08-22T00:22:50.931Z,50.902439
2022-08-22T00:23:50.952Z,50.902435
2022-08-22T00:24:50.916Z,50.902435
2022-08-22T00:25:50.911Z,50.902382
2022-08-22T00:26:51.899Z,50.902405
2022-08-22T00:27:50.896Z,50.902378
2022-08-22T00:28:50.911Z,50.902390
2022-08-22T00:29:50.875Z,50.902401
2022-08-22T00:30:50.871Z,50.902370
2022-08-22T00:31:50.863Z,50.902435
2022-08-22T00:32:50.855Z,50.902451
2022-08-22T00:33:50.868Z,50.902416
2022-08-22T00:34:50.836Z,50.902443
2022-08-22T00:35:50.847Z,50.902435
2022-08-22T00:36:50.819Z,50.902428
2022-08-22T00:37:50.833Z,50.902428
2022-08-22T00:38:50.832Z,50.902424
2022-08-22T00:39:50.847Z,50.902420
2022-08-22T00:40:50.787Z,50.902405
2022-08-22T00:41:50.778Z,50.902393
2022-08-22T00:42:50.773Z,50.902386
2022-08-22T00:43:50.787Z,50.902390
2022-08-22T00:44:50.758Z,50.902393
2022-08-22T00:45:50.767Z,50.902382
2022-08-22T00:46:50.741Z,50.902443
2022-08-22T00:47:50.760Z,50.902439
2022-08-22T00:48:50.754Z,50.902424
2022-08-22T00:49:50.713Z,50.902420
2022-08-22T00:50:51.704Z,50.902431
2022-08-22T00:51:50.701Z,50.902431
2022-08-22T00:52:50.691Z,50.902428
2022-08-22T00:53:50.709Z,50.902435
2022-08-22T00:54:50.683Z,50.902412
2022-08-22T00:55:50.683Z,50.902405
2022-08-22T00:56:50.659Z,50.902409
2022-08-22T00:57:50.681Z,50.902443
2022-08-22T00:58:50.672Z,50.902405
2022-08-22T00:59:50.639Z,50.902443
2022-08-22T01:00:50.662Z,50.902386
2022-08-22T01:01:50.619Z,50.902378
2022-08-22T01:02:52.714Z,50.902390
2022-08-22T01:03:51.629Z,50.902374
2022-08-22T01:04:50.592Z,50.902390
2022-08-22T01:05:50.583Z,50.902374
2022-08-22T01:06:50.579Z,50.902370
2022-08-22T01:07:50.566Z,50.902386
2022-08-22T01:08:50.590Z,50.902416
2022-08-22T01:09:50.553Z,50.902409
2022-08-22T01:10:50.552Z,50.902382
2022-08-22T01:11:50.538Z,50.902367
2022-08-22T01:12:50.524Z,50.902405
2022-08-22T01:13:50.545Z,50.902428
2022-08-22T01:14:50.511Z,50.902370
2022-08-22T01:15:50.505Z,50.902386
2022-08-22T01:16:50.495Z,50.902405
2022-08-22T01:17:50.490Z,50.902382
2022-08-22T01:18:50.524Z,50.902393
2022-08-22T01:19:50.478Z,50.902390
2022-08-22T01:20:50.472Z,50.902378
2022-08-22T01:21:50.455Z,50.902390
2022-08-22T01:22:50.447Z,50.902393
2022-08-22T01:23:50.466Z,50.902405
2022-08-22T01:24:50.434Z,50.902401
2022-08-22T01:25:50.960Z,50.902344
2022-08-22T01:26:50.422Z,50.902378
2022-08-22T01:27:50.417Z,50.902401
2022-08-22T01:28:50.432Z,50.902386
2022-08-22T01:29:50.394Z,50.902405
2022-08-22T01:30:50.399Z,50.902386
2022-08-22T01:31:50.378Z,50.902378
2022-08-22T01:32:50.377Z,50.902409
2022-08-22T01:33:51.390Z,50.902409
2022-08-22T01:34:50.354Z,50.902420
2022-08-22T01:35:50.351Z,50.902390
2022-08-22T01:36:50.333Z,50.902386
2022-08-22T01:37:50.335Z,50.902382
2022-08-22T01:38:50.353Z,50.902359
2022-08-22T01:39:50.367Z,50.902351
2022-08-22T01:40:53.898Z,50.902325
2022-08-22T01:41:50.306Z,50.902348
2022-08-22T01:42:50.291Z,50.902390
2022-08-22T01:43:59.637Z,50.902374
2022-08-22T01:44:51.270Z,50.902382
2022-08-22T01:45:51.305Z,50.902374
2022-08-22T01:46:50.267Z,50.902374
2022-08-22T01:47:50.258Z,50.902378
2022-08-22T01:49:23.878Z,50.902390
2022-08-22T01:49:50.240Z,50.902336
2022-08-22T01:50:50.234Z,50.902348
2022-08-22T01:51:50.233Z,50.902416
2022-08-22T01:52:50.222Z,50.902420
2022-08-22T01:53:50.211Z,50.902397
2022-08-22T01:54:50.229Z,50.902435
2022-08-22T01:55:50.201Z,50.902401
2022-08-22T01:56:50.194Z,50.902443
2022-08-22T01:57:50.172Z,50.902439
2022-08-22T01:58:51.186Z,50.902508
2022-08-22T01:59:50.207Z,50.902462
2022-08-22T02:00:50.190Z,50.902443
2022-08-22T02:01:50.170Z,50.902393
2022-08-22T02:02:50.175Z,50.902405
2022-08-22T02:03:50.147Z,50.902325
2022-08-22T02:04:50.154Z,50.902382
2022-08-22T02:05:50.117Z,50.902424
2022-08-22T02:06:50.120Z,50.902439
2022-08-22T02:07:50.106Z,50.902412
2022-08-22T02:08:50.098Z,50.902386
2022-08-22T02:09:50.120Z,50.902416
2022-08-22T02:10:50.085Z,50.902405
2022-08-22T02:11:50.066Z,50.902412
2022-08-22T02:12:51.066Z,50.902462
2022-08-22T02:13:50.091Z,50.902397
2022-08-22T02:14:50.053Z,50.902367
2022-08-22T02:15:50.052Z,50.902306
2022-08-22T02:16:50.045Z,50.902386
2022-08-22T02:17:50.034Z,50.902359
2022-08-22T02:18:50.058Z,50.902386
2022-08-22T02:19:50.015Z,50.902367
2022-08-22T02:20:50.016Z,50.902386
2022-08-22T02:21:50.000Z,50.902397
2022-08-22T02:22:49.993Z,50.902405
2022-08-22T02:23:50.012Z,50.902409
2022-08-22T02:24:49.979Z,50.902412
2022-08-22T02:25:49.973Z,50.902431
2022-08-22T02:26:49.963Z,50.902382
2022-08-22T02:27:49.963Z,50.902363
2022-08-22T02:28:56.503Z,50.902390
2022-08-22T02:29:50.963Z,50.902397
2022-08-22T02:30:49.928Z,50.902409
2022-08-22T02:31:49.919Z,50.902390
2022-08-22T02:32:49.915Z,50.902416
2022-08-22T02:33:49.920Z,50.902382
2022-08-22T02:34:49.932Z,50.902401
2022-08-22T02:35:49.894Z,50.902397
2022-08-22T02:36:49.885Z,50.902424
2022-08-22T02:37:49.877Z,50.902420
2022-08-22T02:38:49.865Z,50.902393
2022-08-22T02:39:49.935Z,50.902370
2022-08-22T02:40:49.853Z,50.902393
2022-08-22T02:41:49.841Z,50.902355
2022-08-22T02:42:49.840Z,50.902378
2022-08-22T02:43:49.838Z,50.902382
2022-08-22T02:44:49.839Z,50.902386
2022-08-22T02:45:49.811Z,50.902370
2022-08-22T02:46:49.805Z,50.902401
2022-08-22T02:47:49.797Z,50.902382
2022-08-22T02:48:49.791Z,50.902359
2022-08-22T02:49:49.807Z,50.902378
2022-08-22T02:50:49.775Z,50.902378
2022-08-22T02:51:49.767Z,50.902367
2022-08-22T02:52:49.753Z,50.902370
2022-08-22T02:53:49.752Z,50.902378
2022-08-22T02:54:49.769Z,50.902390
2022-08-22T02:55:49.731Z,50.902374
2022-08-22T02:56:49.726Z,50.902367
2022-08-22T02:57:49.714Z,50.902374
2022-08-22T02:58:49.708Z,50.902374
2022-08-22T02:59:49.718Z,50.902382
2022-08-22T03:00:49.708Z,50.902412
2022-08-22T03:01:49.679Z,50.902401
2022-08-22T03:02:49.677Z,50.902401
2022-08-22T03:03:49.665Z,50.902351
2022-08-22T03:04:49.683Z,50.902348
2022-08-22T03:05:49.654Z,50.902355
2022-08-22T03:06:49.649Z,50.902397
2022-08-22T03:07:49.627Z,50.902390
2022-08-22T03:08:51.020Z,50.902401
2022-08-22T03:09:49.647Z,50.902374
2022-08-22T03:10:49.615Z,50.902363
2022-08-22T03:11:49.607Z,50.902363
2022-08-22T03:12:49.595Z,50.902378
2022-08-22T03:13:49.588Z,50.902401
2022-08-22T03:14:49.603Z,50.902378
2022-08-22T03:15:49.706Z,50.902378
2022-08-22T03:16:49.570Z,50.902378
2022-08-22T03:17:49.559Z,50.902378
2022-08-22T03:18:49.550Z,50.902378
2022-08-22T03:19:49.568Z,50.902401
2022-08-22T03:20:49.539Z,50.902428
2022-08-22T03:21:49.524Z,50.902424
2022-08-22T03:22:49.515Z,50.902393
2022-08-22T03:23:49.504Z,50.902382
2022-08-22T03:24:50.537Z,50.902374
2022-08-22T03:25:49.496Z,50.902382
2022-08-22T03:26:49.490Z,50.902393
2022-08-22T03:27:50.086Z,50.902390
2022-08-22T03:28:59.585Z,50.902397
2022-08-22T03:29:50.489Z,50.902405
2022-08-22T03:30:49.462Z,50.902370
2022-08-22T03:31:49.461Z,50.902355
2022-08-22T03:32:49.438Z,50.902370
2022-08-22T03:33:49.435Z,50.902431
2022-08-22T03:34:49.449Z,50.902412
2022-08-22T03:35:49.418Z,50.902424
2022-08-22T03:36:49.411Z,50.902428
2022-08-22T03:37:49.406Z,50.902405
2022-08-22T03:38:49.392Z,50.902390
2022-08-22T03:39:49.492Z,50.902401
2022-08-22T03:40:49.380Z,50.902370
2022-08-22T03:41:49.368Z,50.902367
2022-08-22T03:42:49.363Z,50.902401
2022-08-22T03:43:49.350Z,50.902420
2022-08-22T03:44:49.375Z,50.902416
2022-08-22T03:45:49.338Z,50.902435
2022-08-22T03:46:49.330Z,50.902451
2022-08-22T03:47:49.319Z,50.902454
2022-08-22T03:48:49.320Z,50.902428
2022-08-22T03:49:49.340Z,50.902454
2022-08-22T03:50:49.302Z,50.902454
2022-08-22T03:51:50.288Z,50.902431
2022-08-22T03:52:49.282Z,50.902470
2022-08-22T03:53:49.278Z,50.902428
2022-08-22T03:54:49.277Z,50.902416
2022-08-22T03:55:49.289Z,50.902405
2022-08-22T03:56:49.250Z,50.902435
2022-08-22T03:57:49.244Z,50.902435
2022-08-22T03:58:49.238Z,50.902393
2022-08-22T03:59:49.231Z,50.902431
2022-08-22T04:00:49.322Z,50.902401
2022-08-22T04:01:49.214Z,50.902401
2022-08-22T04:02:49.209Z,50.902390
2022-08-22T04:03:49.198Z,50.902409
2022-08-22T04:04:49.187Z,50.902439
2022-08-22T04:05:49.208Z,50.902390
2022-08-22T04:06:49.182Z,50.902374
2022-08-22T04:07:49.166Z,50.902401
2022-08-22T04:08:49.162Z,50.902416
2022-08-22T04:09:49.156Z,50.902435
2022-08-22T04:10:49.172Z,50.902416
2022-08-22T04:11:49.137Z,50.902340
2022-08-22T04:12:49.130Z,50.902390
2022-08-22T04:13:49.120Z,50.902397
2022-08-22T04:14:49.111Z,50.902374
2022-08-22T04:15:49.127Z,50.902370
2022-08-22T04:16:49.401Z,50.902378
2022-08-22T04:17:49.086Z,50.902393
2022-08-22T04:18:49.080Z,50.902401
2022-08-22T04:19:49.089Z,50.902412
2022-08-22T04:20:49.094Z,50.902378
2022-08-22T04:21:49.066Z,50.902397
2022-08-22T04:22:49.058Z,50.902363
2022-08-22T04:23:49.047Z,50.902382
2022-08-22T04:24:52.436Z,50.902382
2022-08-22T04:25:49.065Z,50.902344
2022-08-22T04:26:49.024Z,50.902340
2022-08-22T04:27:49.018Z,50.902412
2022-08-22T04:28:49.007Z,50.902401
2022-08-22T04:29:49.022Z,50.902370
2022-08-22T04:30:49.038Z,50.902386
2022-08-22T04:31:48.997Z,50.902382
2022-08-22T04:32:48.983Z,50.902390
2022-08-22T04:33:48.980Z,50.902382
2022-08-22T04:34:48.968Z,50.902393
2022-08-22T04:35:48.988Z,50.902390
2022-08-22T04:36:48.961Z,50.902386
2022-08-22T04:37:48.947Z,50.902378
2022-08-22T04:38:48.934Z,50.902420
2022-08-22T04:39:48.987Z,50.902405
2022-08-22T04:40:48.954Z,50.902370
2022-08-22T04:41:48.908Z,50.902382
2022-08-22T04:42:48.903Z,50.902374
2022-08-22T04:43:48.900Z,50.902382
2022-08-22T04:44:48.893Z,50.902401
2022-08-22T04:45:48.906Z,50.902397
2022-08-22T04:46:48.874Z,50.902390
2022-08-22T04:47:53.964Z,50.902390
2022-08-22T04:48:49.856Z,50.902390
2022-08-22T04:49:48.850Z,50.902370
2022-08-22T04:50:48.882Z,50.902393
2022-08-22T04:51:48.839Z,50.902428
2022-08-22T04:52:48.833Z,50.902409
2022-08-22T04:53:48.825Z,50.902397
2022-08-22T04:54:48.818Z,50.902397
2022-08-22T04:55:48.833Z,50.902424
2022-08-22T04:56:48.797Z,50.902405
2022-08-22T04:57:48.791Z,50.902401
2022-08-22T04:58:48.782Z,50.902420
2022-08-22T04:59:48.784Z,50.902416
2022-08-22T05:00:48.803Z,50.902397
2022-08-22T05:01:48.820Z,50.902401
2022-08-22T05:02:48.749Z,50.902416
2022-08-22T05:03:48.742Z,50.902393
2022-08-22T05:04:48.740Z,50.902405
2022-08-22T05:05:48.758Z,50.902397
2022-08-22T05:06:48.727Z,50.902401
2022-08-22T05:07:48.716Z,50.902390
2022-08-22T05:08:53.733Z,50.902382
2022-08-22T05:09:49.697Z,50.902405
2022-08-22T05:10:48.722Z,50.902454
2022-08-22T05:11:48.680Z,50.902409
2022-08-22T05:12:48.678Z,50.902386
2022-08-22T05:13:48.665Z,50.902382
2022-08-22T05:14:48.666Z,50.902393
2022-08-22T05:15:48.644Z,50.902386
2022-08-22T05:16:48.670Z,50.902378
2022-08-22T05:17:48.639Z,50.902382
2022-08-22T05:18:48.626Z,50.902386
2022-08-22T05:19:48.632Z,50.902378
2022-08-22T05:20:49.335Z,50.902374
2022-08-22T05:21:48.634Z,50.902370
2022-08-22T05:22:48.601Z,50.902378
2022-08-22T05:23:48.598Z,50.902390
2022-08-22T05:24:48.595Z,50.902390
2022-08-22T05:25:48.576Z,50.902386
2022-08-22T05:26:48.592Z,50.902386
2022-08-22T05:27:48.558Z,50.902390
2022-08-22T05:28:52.623Z,50.902393
2022-08-22T05:29:49.545Z,50.902363
2022-08-22T05:30:48.533Z,50.902363
2022-08-22T05:31:48.552Z,50.902370
2022-08-22T05:32:48.527Z,50.902393
2022-08-22T05:33:48.519Z,50.902405
2022-08-22T05:34:48.513Z,50.902393
2022-08-22T05:35:50.777Z,50.902412
2022-08-22T05:36:49.520Z,50.902393
2022-08-22T05:37:48.481Z,50.902397
2022-08-22T05:38:48.472Z,50.902401
2022-08-22T05:39:48.539Z,50.902378
2022-08-22T05:40:48.464Z,50.902390
2022-08-22T05:41:48.483Z,50.902386
2022-08-22T05:42:48.446Z,50.902386
2022-08-22T05:43:48.439Z,50.902374
2022-08-22T05:44:48.434Z,50.902382
2022-08-22T05:45:48.419Z,50.902378
2022-08-22T05:46:48.436Z,50.902397
2022-08-22T05:47:48.420Z,50.902390
2022-08-22T05:48:48.397Z,50.902378
2022-08-22T05:49:48.393Z,50.902382
2022-08-22T05:50:50.948Z,50.902378
2022-08-22T05:51:49.401Z,50.902351
2022-08-22T05:52:48.372Z,50.902386
2022-08-22T05:53:48.365Z,50.902382
2022-08-22T05:54:48.360Z,50.902370
2022-08-22T05:55:48.346Z,50.902348
2022-08-22T05:56:48.365Z,50.902363
2022-08-22T05:57:48.336Z,50.902355
2022-08-22T05:58:48.324Z,50.902332
2022-08-22T05:59:48.319Z,50.902370
2022-08-22T06:00:48.307Z,50.902359
2022-08-22T06:01:48.337Z,50.902363
2022-08-22T06:02:48.290Z,50.902344
2022-08-22T06:03:48.289Z,50.902332
2022-08-22T06:04:48.282Z,50.902348
2022-08-22T06:05:48.266Z,50.902359
2022-08-22T06:06:48.288Z,50.902359
2022-08-22T06:07:48.250Z,50.902332
2022-08-22T06:08:48.232Z,50.902340
2022-08-22T06:09:49.242Z,50.902348
2022-08-22T06:10:48.455Z,50.902344
2022-08-22T06:11:51.763Z,50.902355
2022-08-22T06:12:48.209Z,50.902370
2022-08-22T06:13:48.208Z,50.902344
2022-08-22T06:14:48.207Z,50.902332
2022-08-22T06:15:48.537Z,50.902370
2022-08-22T06:16:48.916Z,50.902355
2022-08-22T06:17:48.175Z,50.902370
2022-08-22T06:18:48.177Z,50.902355
2022-08-22T06:19:48.158Z,50.902359
2022-08-22T06:20:48.159Z,50.902386
2022-08-22T06:21:48.171Z,50.902386
2022-08-22T06:22:48.139Z,50.902328
2022-08-22T06:23:48.129Z,50.902321
2022-08-22T06:24:48.118Z,50.902325
2022-08-22T06:25:48.111Z,50.902351
2022-08-22T06:26:48.930Z,50.902336
2022-08-22T06:27:49.095Z,50.902355
2022-08-22T06:28:54.726Z,50.902367
2022-08-22T06:29:49.078Z,50.902378
2022-08-22T06:30:48.069Z,50.902370
2022-08-22T06:31:48.093Z,50.902378
2022-08-22T06:33:00.248Z,50.902359
2022-08-22T06:33:49.045Z,50.902370
2022-08-22T06:34:48.043Z,50.902374
2022-08-22T06:35:48.030Z,50.902370
2022-08-22T06:36:48.051Z,50.902367
2022-08-22T06:37:48.032Z,50.902367
2022-08-22T06:38:48.007Z,50.902374
2022-08-22T06:39:48.021Z,50.902355
2022-08-22T06:40:47.994Z,50.902390
2022-08-22T06:41:48.007Z,50.902382
2022-08-22T06:42:47.973Z,50.902359
2022-08-22T06:43:47.964Z,50.902359
2022-08-22T06:44:47.958Z,50.902340
2022-08-22T06:45:47.954Z,50.902374
2022-08-22T06:46:47.967Z,50.902367
2022-08-22T06:47:50.138Z,50.902370
2022-08-22T06:48:47.935Z,50.902359
2022-08-22T06:49:47.923Z,50.902359
2022-08-22T06:50:47.913Z,50.902355
2022-08-22T06:51:47.930Z,50.902386
2022-08-22T06:52:47.912Z,50.902378
2022-08-22T06:53:48.377Z,50.902363
2022-08-22T06:54:47.883Z,50.902374
2022-08-22T06:55:47.870Z,50.902370
2022-08-22T06:56:47.891Z,50.902344
2022-08-22T06:57:47.860Z,50.902390
2022-08-22T06:58:47.847Z,50.902405
2022-08-22T06:59:47.838Z,50.902374
2022-08-22T07:00:58.809Z,50.902390
2022-08-22T07:01:49.968Z,50.902374
2022-08-22T07:02:47.825Z,50.902386
2022-08-22T07:03:47.817Z,50.902386
2022-08-22T07:04:47.801Z,50.902367
2022-08-22T07:05:47.797Z,50.902370
2022-08-22T07:06:47.820Z,50.902386
2022-08-22T07:07:47.782Z,50.902397
2022-08-22T07:08:47.775Z,50.902382
2022-08-22T07:09:47.767Z,50.902332
2022-08-22T07:10:47.765Z,50.902386
2022-08-22T07:11:47.777Z,50.902378
2022-08-22T07:12:47.742Z,50.902359
2022-08-22T07:13:47.746Z,50.902393
2022-08-22T07:14:47.727Z,50.902401
2022-08-22T07:15:47.722Z,50.902386
2022-08-22T07:16:47.739Z,50.902367
2022-08-22T07:17:47.706Z,50.902367
2022-08-22T07:18:47.700Z,50.902367
2022-08-22T07:19:47.693Z,50.902393
2022-08-22T07:20:47.684Z,50.902340
2022-08-22T07:21:47.703Z,50.902367
2022-08-22T07:22:47.669Z,50.902416
2022-08-22T07:23:47.665Z,50.902420
2022-08-22T07:24:47.651Z,50.902409
2022-08-22T07:25:47.652Z,50.902378
2022-08-22T07:26:47.662Z,50.902393
2022-08-22T07:27:48.747Z,50.902390
2022-08-22T07:28:51.612Z,50.902382
2022-08-22T07:29:48.614Z,50.902409
2022-08-22T07:30:47.604Z,50.902397
2022-08-22T07:31:47.623Z,50.902405
2022-08-22T07:32:47.597Z,50.902416
2022-08-22T07:33:47.581Z,50.902401
2022-08-22T07:34:47.577Z,50.902405
2022-08-22T07:35:53.427Z,50.902416
2022-08-22T07:36:48.585Z,50.902386
2022-08-22T07:37:47.547Z,50.902416
2022-08-22T07:38:47.542Z,50.902405
2022-08-22T07:39:47.586Z,50.902393
2022-08-22T07:40:47.530Z,50.902401
2022-08-22T07:41:47.559Z,50.902378
2022-08-22T07:42:47.697Z,50.902420
2022-08-22T07:43:47.505Z,50.902412
2022-08-22T07:44:47.500Z,50.902428
2022-08-22T07:45:47.493Z,50.902428
2022-08-22T07:46:47.514Z,50.902405
2022-08-22T07:47:49.734Z,50.902409
2022-08-22T07:49:07.670Z,50.902420
2022-08-22T07:50:15.317Z,50.902420
2022-08-22T07:50:47.466Z,50.902416
2022-08-22T07:51:47.446Z,50.902435
2022-08-22T07:52:47.466Z,50.902443
2022-08-22T07:53:47.438Z,50.902428
2022-08-22T07:54:47.420Z,50.902431
2022-08-22T07:55:49.622Z,50.902397
2022-08-22T07:56:48.403Z,50.902420
2022-08-22T07:57:47.426Z,50.902416
2022-08-22T07:58:47.390Z,50.902424
2022-08-22T07:59:47.384Z,50.902420
2022-08-22T08:00:47.406Z,50.902431
2022-08-22T08:01:47.425Z,50.902409
2022-08-22T08:02:47.411Z,50.902431
2022-08-22T08:03:47.361Z,50.902439
2022-08-22T08:04:47.349Z,50.902447
2022-08-22T08:05:47.336Z,50.902458
2022-08-22T08:06:47.334Z,50.902451
2022-08-22T08:07:47.349Z,50.902420
2022-08-22T08:08:47.316Z,50.902466
2022-08-22T08:09:47.308Z,50.902431
2022-08-22T08:10:47.306Z,50.902451
2022-08-22T08:11:47.302Z,50.902439
2022-08-22T08:13:00.575Z,50.902443
2022-08-22T08:13:48.269Z,50.902454
2022-08-22T08:14:47.266Z,50.902454
2022-08-22T08:15:47.253Z,50.902504
2022-08-22T08:16:47.245Z,50.902454
2022-08-22T08:17:47.263Z,50.902405
2022-08-22T08:18:47.237Z,50.902439
2022-08-22T08:19:47.221Z,50.902431
2022-08-22T08:20:47.213Z,50.902466
2022-08-22T08:21:47.217Z,50.902462
2022-08-22T08:22:47.230Z,50.902470
2022-08-22T08:23:47.222Z,50.902409
2022-08-22T08:24:47.183Z,50.902431
2022-08-22T08:25:47.180Z,50.902424
2022-08-22T08:26:48.165Z,50.902435
2022-08-22T08:27:52.576Z,50.902470
2022-08-22T08:28:48.146Z,50.902477
2022-08-22T08:29:47.144Z,50.902470
2022-08-22T08:30:47.135Z,50.902466
2022-08-22T08:31:47.142Z,50.902443
2022-08-22T08:32:47.148Z,50.902443
2022-08-22T08:33:47.138Z,50.902443
2022-08-22T08:34:47.118Z,50.902390
2022-08-22T08:36:02.018Z,50.902412
2022-08-22T08:36:49.080Z,50.902431
2022-08-22T08:37:48.105Z,50.902416
2022-08-22T08:38:47.073Z,50.902439
2022-08-22T08:39:47.120Z,50.902443
2022-08-22T08:40:48.516Z,50.902451
2022-08-22T08:41:47.077Z,50.902443
2022-08-22T08:42:47.080Z,50.902470
2022-08-22T08:43:47.053Z,50.902489
2022-08-22T08:44:47.026Z,50.902527
2022-08-22T08:45:47.021Z,50.902512
2022-08-22T08:46:55.181Z,50.902447
2022-08-22T08:47:48.031Z,50.902424
2022-08-22T08:48:46.997Z,50.902435
2022-08-22T08:49:46.987Z,50.902420
2022-08-22T08:50:46.984Z,50.902409
2022-08-22T08:51:46.990Z,50.902405
2022-08-22T08:52:51.021Z,50.902420
2022-08-22T08:53:48.958Z,50.902431
2022-08-22T08:54:47.207Z,50.902397
2022-08-22T08:55:46.944Z,50.902428
2022-08-22T08:56:47.208Z,50.902451
2022-08-22T08:57:46.952Z,50.902435
2022-08-22T08:58:46.921Z,50.902424
2022-08-22T08:59:46.911Z,50.902435
2022-08-22T09:00:48.945Z,50.902435
2022-08-22T09:01:47.007Z,50.902409
2022-08-22T09:02:47.911Z,50.902420
2022-08-22T09:03:46.897Z,50.902443
2022-08-22T09:04:46.882Z,50.902412
2022-08-22T09:05:47.168Z,50.902420
2022-08-22T09:07:47.960Z,50.902473
2022-08-22T09:08:46.839Z,50.902451
2022-08-22T09:09:46.840Z,50.902454
2022-08-22T09:10:47.828Z,50.902451
2022-08-22T09:11:46.836Z,50.902420
2022-08-22T09:12:59.766Z,50.902451
2022-08-22T09:13:47.800Z,50.902443
2022-08-22T09:14:46.794Z,50.902458
2022-08-22T09:15:58.663Z,50.902489
2022-08-22T09:16:51.272Z,50.902473
2022-08-22T09:17:47.801Z,50.902466
2022-08-22T09:18:46.771Z,50.902466
2022-08-22T09:19:46.757Z,50.902458
2022-08-22T09:20:46.747Z,50.902447
2022-08-22T09:21:46.764Z,50.902473
2022-08-22T09:22:50.605Z,50.902458
2022-08-22T09:23:46.748Z,50.902477
2022-08-22T09:24:47.715Z,50.902466
2022-08-22T09:25:46.721Z,50.902470
2022-08-22T09:26:46.701Z,50.902466
2022-08-22T09:27:46.722Z,50.902451
2022-08-22T09:28:46.687Z,50.902443
2022-08-22T09:29:55.147Z,50.902439
2022-08-22T09:30:47.678Z,50.902458
2022-08-22T09:31:52.070Z,50.902451
2022-08-22T09:32:47.679Z,50.902443
2022-08-22T09:33:46.673Z,50.902435
2022-08-22T09:34:47.753Z,50.902439
2022-08-22T09:35:46.639Z,50.902424
2022-08-22T09:36:46.627Z,50.902412
2022-08-22T09:37:46.689Z,50.902435
2022-08-22T09:38:47.827Z,50.902447
2022-08-22T09:39:46.636Z,50.902428
2022-08-22T09:40:46.596Z,50.902435
2022-08-22T09:41:46.594Z,50.902428
2022-08-22T09:42:47.606Z,50.902424
2022-08-22T09:43:48.716Z,50.902416
2022-08-22T09:44:46.572Z,50.902412
2022-08-22T09:45:47.067Z,50.902431
2022-08-22T09:46:46.557Z,50.902435
2022-08-22T09:47:46.582Z,50.902428
2022-08-22T09:48:46.540Z,50.902431
2022-08-22T09:49:46.539Z,50.902431
2022-08-22T09:50:46.548Z,50.902420
2022-08-22T09:51:46.543Z,50.902412
2022-08-22T09:52:46.539Z,50.902420
2022-08-22T09:53:46.525Z,50.902405
2022-08-22T09:54:46.497Z,50.902409
2022-08-22T09:55:46.488Z,50.902409
2022-08-22T09:56:47.102Z,50.902405
2022-08-22T09:57:46.498Z,50.902405
2022-08-22T09:58:46.466Z,50.902382
2022-08-22T09:59:46.463Z,50.902390
2022-08-22T10:00:46.479Z,50.902405
2022-08-22T10:01:47.502Z,50.902382
2022-08-22T10:02:50.376Z,50.902397
2022-08-22T10:03:46.446Z,50.902390
2022-08-22T10:04:46.418Z,50.902390
2022-08-22T10:05:46.411Z,50.902386
2022-08-22T10:06:46.406Z,50.902382
2022-08-22T10:07:46.417Z,50.902359
2022-08-22T10:08:47.390Z,50.902386
2022-08-22T10:09:46.380Z,50.902409
2022-08-22T10:10:46.370Z,50.902405
2022-08-22T10:11:46.378Z,50.902378
2022-08-22T10:12:46.392Z,50.902363
2022-08-22T10:13:46.370Z,50.902390
2022-08-22T10:14:51.173Z,50.902386
2022-08-22T10:15:46.339Z,50.902382
2022-08-22T10:16:46.327Z,50.902401
2022-08-22T10:17:46.342Z,50.902390
2022-08-22T10:18:53.269Z,50.902390
2022-08-22T10:19:47.305Z,50.902393
2022-08-22T10:20:46.295Z,50.902401
2022-08-22T10:21:46.292Z,50.902405
2022-08-22T10:22:46.311Z,50.902359
2022-08-22T10:23:46.273Z,50.902370
2022-08-22T10:24:46.266Z,50.902416
2022-08-22T10:25:46.254Z,50.902359
2022-08-22T10:26:46.256Z,50.902351
2022-08-22T10:27:46.273Z,50.902374
2022-08-22T10:28:46.241Z,50.902454
2022-08-22T10:29:46.231Z,50.902359
2022-08-22T10:30:46.224Z,50.902397
2022-08-22T10:31:58.705Z,50.902378
2022-08-22T10:32:47.232Z,50.902355
2022-08-22T10:33:46.216Z,50.902359
2022-08-22T10:34:46.191Z,50.902359
2022-08-22T10:35:46.182Z,50.902355
2022-08-22T10:36:46.176Z,50.902370
2022-08-22T10:37:46.633Z,50.902344
2022-08-22T10:38:47.007Z,50.902306
2022-08-22T10:39:46.218Z,50.902363
2022-08-22T10:40:46.142Z,50.902336
2022-08-22T10:41:46.132Z,50.902317
2022-08-22T10:42:46.150Z,50.902328
2022-08-22T10:43:46.118Z,50.902325
2022-08-22T10:44:46.111Z,50.902328
2022-08-22T10:45:46.108Z,50.902355
2022-08-22T10:46:46.095Z,50.902390
2022-08-22T10:47:46.108Z,50.902382
2022-08-22T10:48:46.152Z,50.902359
2022-08-22T10:49:46.067Z,50.902386
2022-08-22T10:50:47.063Z,50.902386
2022-08-22T10:51:46.052Z,50.902390
2022-08-22T10:52:46.071Z,50.902344
2022-08-22T10:53:46.037Z,50.902344
2022-08-22T10:54:46.038Z,50.902367
2022-08-22T10:55:46.024Z,50.902378
2022-08-22T10:56:46.017Z,50.902390
2022-08-22T10:57:50.682Z,50.902378
2022-08-22T10:58:47.998Z,50.902390
2022-08-22T10:59:45.988Z,50.902351
2022-08-22T11:00:49.694Z,50.902386
2022-08-22T11:01:46.006Z,50.902378
2022-08-22T11:02:45.994Z,50.902382
2022-08-22T11:03:45.969Z,50.902351
2022-08-22T11:04:45.959Z,50.902374
2022-08-22T11:05:47.777Z,50.902378
2022-08-22T11:06:45.946Z,50.902390
2022-08-22T11:07:48.671Z,50.902401
2022-08-22T11:08:45.923Z,50.902374
2022-08-22T11:09:45.915Z,50.902344
2022-08-22T11:10:45.896Z,50.902378
2022-08-22T11:11:47.470Z,50.902393
2022-08-22T11:12:45.908Z,50.902390
2022-08-22T11:13:46.881Z,50.902401
2022-08-22T11:14:45.877Z,50.902397
2022-08-22T11:15:45.869Z,50.902393
2022-08-22T11:16:45.909Z,50.902397